Time;durP1;ratioP1;P1;durP2;ratioP2;P2;SDS_P1;SDS_P2;PMS_P1;PMS_P2;Temp;Humidity;BMP_temperature;BMP_pressure;BME280_temperature;BME280_humidity;BME280_pressure;Samples;Min_cycle;Max_cycle;Signal;HPM_P1;HPM_P2
2021/07/09 00:01:41;;;;;;;4.82;3.53;;;;;;;;;;5093927;28;20161;-59
2021/07/09 00:04:08;;;;;;;4.28;3.88;;;;;;;;;;5093534;28;20035;-59
2021/07/09 00:06:34;;;;;;;8.20;4.70;;;;;;;;;;5093739;28;20029;-59
2021/07/09 00:09:03;;;;;;;4.32;3.88;;;;;;;;;;5093595;28;20028;-59
2021/07/09 00:11:29;;;;;;;5.10;4.45;;;;;;;;;;5093991;28;20111;-59
2021/07/09 00:13:56;;;;;;;4.30;3.90;;;;;;;;;;5093658;28;20038;-59
2021/07/09 00:16:25;;;;;;;4.40;4.00;;;;;;;;;;5092130;28;20038;-59
2021/07/09 00:18:51;;;;;;;5.05;4.28;;;;;;;;;;5093256;28;20020;-59
2021/07/09 00:21:17;;;;;;;5.07;3.85;;;;;;;;;;5094042;28;20020;-59
2021/07/09 00:23:44;;;;;;;6.38;3.78;;;;;;;;;;5093915;28;20438;-59
2021/07/09 00:26:10;;;;;;;4.03;2.95;;;;;;;;;;5093422;28;20066;-59
2021/07/09 00:28:36;;;;;;;3.92;3.08;;;;;;;;;;5093396;28;20047;-59
2021/07/09 00:31:02;;;;;;;4.13;3.42;;;;;;;;;;5093353;28;20028;-59
2021/07/09 00:33:28;;;;;;;3.30;3.00;;;;;;;;;;5093288;28;20035;-59
2021/07/09 00:35:54;;;;;;;3.55;2.95;;;;;;;;;;5093314;28;20032;-59
2021/07/09 00:38:20;;;;;;;4.22;3.65;;;;;;;;;;5093248;28;20036;-59
2021/07/09 00:40:46;;;;;;;4.88;3.75;;;;;;;;;;5093969;28;20032;-59
2021/07/09 00:43:12;;;;;;;4.43;3.53;;;;;;;;;;5094101;28;20050;-59
2021/07/09 00:45:38;;;;;;;6.88;4.22;;;;;;;;;;5093248;28;20099;-59
2021/07/09 00:48:05;;;;;;;6.03;4.28;;;;;;;;;;5094741;28;20029;-59
2021/07/09 00:50:31;;;;;;;5.38;4.03;;;;;;;;;;5097083;28;20032;-59
2021/07/09 00:52:57;;;;;;;4.85;3.63;;;;;;;;;;5096801;28;20024;-59
2021/07/09 00:55:23;;;;;;;6.22;4.20;;;;;;;;;;5096015;28;20041;-59
2021/07/09 00:57:51;;;;;;;4.93;3.40;;;;;;;;;;5096791;28;20028;-59
2021/07/09 01:00:18;;;;;;;7.13;4.15;;;;;;;;;;5096583;28;20507;-59
2021/07/09 01:02:45;;;;;;;6.53;3.67;;;;;;;;;;5096959;28;20107;-59
2021/07/09 01:05:11;;;;;;;5.10;4.50;;;;;;;;;;5096770;28;20024;-59
2021/07/09 01:07:37;;;;;;;6.85;4.63;;;;;;;;;;5095321;28;20051;-59
2021/07/09 01:10:04;;;;;;;5.63;4.13;;;;;;;;;;5095586;28;20040;-59
2021/07/09 01:12:30;;;;;;;5.20;4.70;;;;;;;;;;5096339;28;20489;-59
2021/07/09 01:14:56;;;;;;;5.38;4.18;;;;;;;;;;5096405;28;20062;-59
2021/07/09 01:17:23;;;;;;;5.90;4.82;;;;;;;;;;5096596;28;20106;-59
2021/07/09 01:19:49;;;;;;;6.13;4.75;;;;;;;;;;5096299;28;20028;-59
2021/07/09 01:22:15;;;;;;;6.72;4.13;;;;;;;;;;5096569;28;20044;-59
2021/07/09 01:24:41;;;;;;;5.95;5.03;;;;;;;;;;5095896;28;20039;-59
2021/07/09 01:27:07;;;;;;;8.82;5.75;;;;;;;;;;5096392;28;20034;-59
2021/07/09 01:29:33;;;;;;;7.40;5.22;;;;;;;;;;5094787;28;20024;-59
2021/07/09 01:32:00;;;;;;;6.63;4.22;;;;;;;;;;5096387;28;20030;-59
2021/07/09 01:34:26;;;;;;;5.43;4.30;;;;;;;;;;5096224;28;20416;-59
2021/07/09 01:36:52;;;;;;;6.38;4.88;;;;;;;;;;5096249;28;20078;-59
2021/07/09 01:39:18;;;;;;;5.50;4.60;;;;;;;;;;5095580;28;20112;-59
2021/07/09 01:41:44;;;;;;;5.25;4.13;;;;;;;;;;5096008;28;20052;-59
2021/07/09 01:44:11;;;;;;;5.50;4.78;;;;;;;;;;5096134;28;20024;-59
2021/07/09 01:46:37;;;;;;;5.93;4.43;;;;;;;;;;5095705;28;20114;-59
2021/07/09 01:49:03;;;;;;;5.15;4.65;;;;;;;;;;5095712;28;20024;-59
2021/07/09 01:51:30;;;;;;;4.90;4.22;;;;;;;;;;5095653;28;20028;-59
2021/07/09 01:53:56;;;;;;;6.22;4.05;;;;;;;;;;5095495;28;20091;-59
2021/07/09 01:56:22;;;;;;;5.03;3.97;;;;;;;;;;5095546;28;20034;-59
2021/07/09 01:58:48;;;;;;;4.63;4.07;;;;;;;;;;5095108;28;20050;-59
2021/07/09 02:01:14;;;;;;;5.18;4.60;;;;;;;;;;5095565;28;20020;-59
2021/07/09 02:03:40;;;;;;;5.13;3.83;;;;;;;;;;5095401;28;20028;-59
2021/07/09 02:06:06;;;;;;;4.97;4.32;;;;;;;;;;5093752;28;20407;-59
2021/07/09 02:08:32;;;;;;;5.32;4.07;;;;;;;;;;5095337;28;20062;-59
2021/07/09 02:10:58;;;;;;;4.10;3.35;;;;;;;;;;5095392;28;20105;-59
2021/07/09 02:13:24;;;;;;;6.90;4.05;;;;;;;;;;5095107;28;20042;-59
2021/07/09 02:15:50;;;;;;;4.55;3.15;;;;;;;;;;5095215;28;20111;-59
2021/07/09 02:18:16;;;;;;;5.72;3.78;;;;;;;;;;5095140;28;20034;-59
2021/07/09 02:20:43;;;;;;;6.00;3.88;;;;;;;;;;5095150;28;20462;-59
2021/07/09 02:23:10;;;;;;;4.70;4.00;;;;;;;;;;5094353;28;20089;-59
2021/07/09 02:25:36;;;;;;;3.85;3.45;;;;;;;;;;5094907;28;20106;-59
2021/07/09 02:28:03;;;;;;;5.85;4.10;;;;;;;;;;5094999;28;20465;-59
2021/07/09 02:30:30;;;;;;;4.90;4.10;;;;;;;;;;5095179;28;20146;-59
2021/07/09 02:32:56;;;;;;;4.43;3.03;;;;;;;;;;5095341;28;20051;-59
2021/07/09 02:35:24;;;;;;;4.00;3.60;;;;;;;;;;5093549;28;20099;-59
2021/07/09 02:37:50;;;;;;;5.63;3.88;;;;;;;;;;5095073;28;20103;-59
2021/07/09 02:40:18;;;;;;;3.97;3.22;;;;;;;;;;5095077;28;20091;-59
2021/07/09 02:42:45;;;;;;;5.05;4.00;;;;;;;;;;5094738;28;20515;-59
2021/07/09 02:45:12;;;;;;;3.88;3.17;;;;;;;;;;5094577;28;20566;-59
2021/07/09 02:47:38;;;;;;;4.10;3.55;;;;;;;;;;5094765;28;20032;-59
2021/07/09 02:50:06;;;;;;;7.03;4.60;;;;;;;;;;5094492;28;20020;-59
2021/07/09 02:52:32;;;;;;;6.85;4.38;;;;;;;;;;5094785;28;20035;-59
2021/07/09 02:54:58;;;;;;;5.38;4.38;;;;;;;;;;5094799;28;20078;-59
2021/07/09 02:57:27;;;;;;;7.75;3.97;;;;;;;;;;5094301;28;20040;-59
2021/07/09 02:59:54;;;;;;;6.07;4.72;;;;;;;;;;5094392;28;20370;-59
2021/07/09 03:02:20;;;;;;;6.20;4.25;;;;;;;;;;5094666;28;20043;-59
2021/07/09 03:04:49;;;;;;;4.53;3.95;;;;;;;;;;5076414;28;20031;-59
2021/07/09 03:07:15;;;;;;;4.78;3.90;;;;;;;;;;5094343;28;20480;-59
2021/07/09 03:09:41;;;;;;;5.78;4.30;;;;;;;;;;5093838;28;20028;-59
2021/07/09 03:12:07;;;;;;;4.05;3.20;;;;;;;;;;5093744;28;20514;-59
2021/07/09 03:14:33;;;;;;;5.18;3.92;;;;;;;;;;5094181;28;20032;-59
2021/07/09 03:16:59;;;;;;;4.25;3.85;;;;;;;;;;5094147;28;20458;-59
2021/07/09 03:19:25;;;;;;;4.47;4.03;;;;;;;;;;5094424;28;20024;-59
2021/07/09 03:21:51;;;;;;;6.07;4.50;;;;;;;;;;5094645;28;20024;-59
2021/07/09 03:24:17;;;;;;;6.43;4.07;;;;;;;;;;5094353;28;20031;-59
2021/07/09 03:26:43;;;;;;;5.78;4.15;;;;;;;;;;5094058;28;20070;-59
2021/07/09 03:29:09;;;;;;;5.22;4.28;;;;;;;;;;5094031;28;20408;-59
2021/07/09 03:31:35;;;;;;;4.30;3.72;;;;;;;;;;5093008;28;20070;-59
2021/07/09 03:34:01;;;;;;;4.80;4.30;;;;;;;;;;5094243;28;20028;-59
2021/07/09 03:36:28;;;;;;;5.25;4.28;;;;;;;;;;5093914;28;20030;-59
2021/07/09 03:38:55;;;;;;;5.47;4.10;;;;;;;;;;5094071;28;20035;-59
2021/07/09 03:41:21;;;;;;;5.85;4.85;;;;;;;;;;5094708;28;20123;-59
2021/07/09 03:43:47;;;;;;;4.78;4.35;;;;;;;;;;5093877;28;20077;-59
2021/07/09 03:46:13;;;;;;;5.68;4.40;;;;;;;;;;5093832;28;20048;-59
2021/07/09 03:48:39;;;;;;;5.80;4.25;;;;;;;;;;5093792;28;20027;-59
2021/07/09 03:51:08;;;;;;;5.05;4.50;;;;;;;;;;5094169;28;20024;-59
2021/07/09 03:53:35;;;;;;;6.75;5.68;;;;;;;;;;5094458;28;20028;-59
2021/07/09 03:56:01;;;;;;;5.82;5.22;;;;;;;;;;5093714;28;20027;-59
2021/07/09 03:58:27;;;;;;;7.85;4.57;;;;;;;;;;5094041;28;20036;-59
2021/07/09 04:00:53;;;;;;;6.28;5.45;;;;;;;;;;5094420;28;20020;-59
2021/07/09 04:03:19;;;;;;;8.38;5.30;;;;;;;;;;5093706;28;20100;-59
2021/07/09 04:05:45;;;;;;;5.43;4.93;;;;;;;;;;5093652;28;20024;-59
2021/07/09 04:08:11;;;;;;;7.30;5.05;;;;;;;;;;5093262;28;20024;-59
2021/07/09 04:10:40;;;;;;;5.50;4.07;;;;;;;;;;5093795;28;20139;-59
2021/07/09 04:13:06;;;;;;;5.75;3.65;;;;;;;;;;5092294;28;20115;-59
2021/07/09 04:15:32;;;;;;;5.97;4.30;;;;;;;;;;5093563;28;20028;-59
2021/07/09 04:17:58;;;;;;;8.43;4.78;;;;;;;;;;5093251;28;20046;-59
2021/07/09 04:20:24;;;;;;;4.70;4.13;;;;;;;;;;5093537;28;20098;-59
2021/07/09 04:22:50;;;;;;;5.10;4.43;;;;;;;;;;5096414;28;20549;-59
2021/07/09 04:25:16;;;;;;;5.97;4.20;;;;;;;;;;5096554;28;20081;-59
2021/07/09 04:27:42;;;;;;;5.60;4.15;;;;;;;;;;5097652;28;20028;-59
2021/07/09 04:30:12;;;;;;;5.55;4.60;;;;;;;;;;5097287;28;20032;-59
2021/07/09 04:32:38;;;;;;;6.23;4.77;;;;;;;;;;5098066;28;20051;-59
2021/07/09 04:35:04;;;;;;;6.47;4.22;;;;;;;;;;5097215;28;20719;-59
2021/07/09 04:37:30;;;;;;;6.55;3.63;;;;;;;;;;5097430;28;20032;-59
2021/07/09 04:39:57;;;;;;;4.45;3.17;;;;;;;;;;5097054;28;20020;-59
2021/07/09 04:42:23;;;;;;;4.45;3.88;;;;;;;;;;5097045;28;20028;-59
2021/07/09 04:44:49;;;;;;;5.82;4.40;;;;;;;;;;5097002;28;20028;-59
2021/07/09 04:47:15;;;;;;;9.25;4.00;;;;;;;;;;5097243;28;20396;-59
2021/07/09 04:49:41;;;;;;;4.22;3.53;;;;;;;;;;5096871;28;20107;-59
2021/07/09 04:52:07;;;;;;;5.60;3.13;;;;;;;;;;5097080;28;20032;-59
2021/07/09 04:54:33;;;;;;;4.25;3.72;;;;;;;;;;5095478;28;20031;-59
2021/07/09 04:56:59;;;;;;;5.90;3.35;;;;;;;;;;5096103;28;20036;-59
2021/07/09 04:59:25;;;;;;;7.28;3.65;;;;;;;;;;5095779;28;20035;-59
2021/07/09 05:01:54;;;;;;;3.50;2.97;;;;;;;;;;5097475;28;20032;-59
2021/07/09 05:04:20;;;;;;;4.85;3.55;;;;;;;;;;5096737;28;20035;-59
2021/07/09 05:06:46;;;;;;;9.23;4.05;;;;;;;;;;5096338;28;20373;-59
2021/07/09 05:09:12;;;;;;;3.90;3.33;;;;;;;;;;5096590;28;20028;-59
2021/07/09 05:11:38;;;;;;;4.70;3.25;;;;;;;;;;5096841;28;20372;-59
2021/07/09 05:14:05;;;;;;;4.47;3.50;;;;;;;;;;5096684;28;20441;-59
2021/07/09 05:16:31;;;;;;;4.40;3.42;;;;;;;;;;5096790;28;20028;-59
2021/07/09 05:18:57;;;;;;;4.03;3.33;;;;;;;;;;5096369;28;20433;-59
2021/07/09 05:21:26;;;;;;;4.85;3.03;;;;;;;;;;5096640;28;20020;-59
2021/07/09 05:23:52;;;;;;;3.75;3.38;;;;;;;;;;5096398;28;20093;-59
2021/07/09 05:26:18;;;;;;;3.75;3.28;;;;;;;;;;5096202;28;20107;-58
2021/07/09 05:28:44;;;;;;;4.63;3.60;;;;;;;;;;5096556;28;20369;-59
2021/07/09 05:31:11;;;;;;;3.83;3.35;;;;;;;;;;5096531;28;20085;-58
2021/07/09 05:33:37;;;;;;;5.72;3.97;;;;;;;;;;5095716;28;20048;-58
2021/07/09 05:36:03;;;;;;;4.30;3.58;;;;;;;;;;5095575;28;20024;-58
2021/07/09 05:38:29;;;;;;;5.90;3.83;;;;;;;;;;5095533;28;20111;-58
2021/07/09 05:40:55;;;;;;;5.38;4.18;;;;;;;;;;5095859;28;20055;-58
2021/07/09 05:43:21;;;;;;;4.35;3.95;;;;;;;;;;5096444;28;20024;-58
2021/07/09 05:45:47;;;;;;;5.32;4.05;;;;;;;;;;5095872;28;20024;-58
2021/07/09 05:48:13;;;;;;;4.28;3.55;;;;;;;;;;5095671;28;20036;-58
2021/07/09 05:50:40;;;;;;;4.03;3.45;;;;;;;;;;5096353;28;20028;-58
2021/07/09 05:53:06;;;;;;;5.82;4.15;;;;;;;;;;5095660;28;20165;-58
2021/07/09 05:55:32;;;;;;;6.40;4.72;;;;;;;;;;5095843;28;20040;-58
2021/07/09 05:57:58;;;;;;;4.65;3.58;;;;;;;;;;5095412;28;20020;-58
2021/07/09 06:00:24;;;;;;;6.88;4.43;;;;;;;;;;5095556;28;20436;-58
2021/07/09 06:02:50;;;;;;;4.40;4.00;;;;;;;;;;5095043;28;20028;-58
2021/07/09 06:05:16;;;;;;;5.35;4.47;;;;;;;;;;5095222;28;20038;-58
2021/07/09 06:07:42;;;;;;;5.47;3.78;;;;;;;;;;5095261;28;20443;-58
2021/07/09 06:10:12;;;;;;;5.95;4.18;;;;;;;;;;5095852;28;20055;-58
2021/07/09 06:12:38;;;;;;;7.28;4.95;;;;;;;;;;5095177;28;20373;-58
2021/07/09 06:15:04;;;;;;;5.10;4.18;;;;;;;;;;5093931;28;20423;-58
2021/07/09 06:17:30;;;;;;;5.03;4.00;;;;;;;;;;5095145;28;20024;-58
2021/07/09 06:19:56;;;;;;;5.65;4.93;;;;;;;;;;5095156;28;20350;-58
2021/07/09 06:22:22;;;;;;;5.72;4.72;;;;;;;;;;5095163;28;20028;-58
2021/07/09 06:24:51;;;;;;;5.47;4.63;;;;;;;;;;5094671;28;20028;-58
2021/07/09 06:27:17;;;;;;;6.20;4.20;;;;;;;;;;5094830;28;20024;-58
2021/07/09 06:29:43;;;;;;;5.88;4.95;;;;;;;;;;5094826;28;20355;-59
2021/07/09 06:32:09;;;;;;;4.82;4.05;;;;;;;;;;5095065;28;20027;-58
2021/07/09 06:34:35;;;;;;;6.95;5.28;;;;;;;;;;5094892;28;20487;-59
2021/07/09 06:37:03;;;;;;;5.38;4.25;;;;;;;;;;5094747;28;20059;-58
2021/07/09 06:39:32;;;;;;;6.72;4.82;;;;;;;;;;5094727;28;20024;-58
2021/07/09 06:41:58;;;;;;;5.65;4.50;;;;;;;;;;5095374;28;20024;-58
2021/07/09 06:44:24;;;;;;;8.38;5.10;;;;;;;;;;5093002;28;20377;-58
2021/07/09 06:46:53;;;;;;;6.43;5.03;;;;;;;;;;5094762;28;20028;-58
2021/07/09 06:49:19;;;;;;;6.78;4.80;;;;;;;;;;5093446;28;20373;-58
2021/07/09 06:51:45;;;;;;;8.75;5.50;;;;;;;;;;5095156;28;20028;-58
2021/07/09 06:54:10;;;;;;;5.53;5.03;;;;;;;;;;5094176;28;20439;-58
2021/07/09 06:56:37;;;;;;;5.07;4.47;;;;;;;;;;5094739;28;20032;-58
2021/07/09 06:59:03;;;;;;;5.88;5.28;;;;;;;;;;5093145;28;20119;-58
2021/07/09 07:01:29;;;;;;;6.43;5.03;;;;;;;;;;5094312;28;20049;-58
2021/07/09 07:03:55;;;;;;;5.85;5.05;;;;;;;;;;5095087;28;20031;-58
2021/07/09 07:06:23;;;;;;;5.15;4.60;;;;;;;;;;5094496;28;20024;-58
2021/07/09 07:08:49;;;;;;;6.40;5.40;;;;;;;;;;5094265;28;20034;-58
2021/07/09 07:11:15;;;;;;;6.80;5.00;;;;;;;;;;5094485;28;20077;-58
2021/07/09 07:13:42;;;;;;;6.25;5.47;;;;;;;;;;5094128;28;20094;-58
2021/07/09 07:16:09;;;;;;;5.78;5.18;;;;;;;;;;5094452;28;20059;-58
2021/07/09 07:18:35;;;;;;;8.82;5.10;;;;;;;;;;5092815;28;20028;-59
2021/07/09 07:21:03;;;;;;;5.35;4.82;;;;;;;;;;5094099;28;20024;-58
2021/07/09 07:23:32;;;;;;;6.13;5.53;;;;;;;;;;5094033;28;20110;-58
2021/07/09 07:25:58;;;;;;;6.50;5.90;;;;;;;;;;5093974;28;20028;-58
2021/07/09 07:28:24;;;;;;;6.22;5.40;;;;;;;;;;5093963;28;20020;-58
2021/07/09 07:30:50;;;;;;;6.60;6.00;;;;;;;;;;5092716;28;20028;-58
2021/07/09 07:33:16;;;;;;;5.80;5.20;;;;;;;;;;5094125;28;20059;-58
2021/07/09 07:35:45;;;;;;;7.50;6.22;;;;;;;;;;5093877;28;20024;-58
2021/07/09 07:38:11;;;;;;;7.72;6.50;;;;;;;;;;5093810;28;20024;-58
2021/07/09 07:40:37;;;;;;;7.20;6.47;;;;;;;;;;5093926;28;20515;-58
2021/07/09 07:43:05;;;;;;;6.65;6.05;;;;;;;;;;5094697;28;20132;-58
2021/07/09 07:45:31;;;;;;;8.75;7.28;;;;;;;;;;5094303;28;20028;-58
2021/07/09 07:47:57;;;;;;;7.47;6.70;;;;;;;;;;5093793;28;20039;-58
2021/07/09 07:50:31;;;;;;;6.97;5.90;;;;;;;;;;5093827;28;20086;-58
2021/07/09 07:52:57;;;;;;;9.48;6.82;;;;;;;;;;5094519;28;20035;-58
2021/07/09 07:55:24;;;;;;;8.98;6.82;;;;;;;;;;5093696;28;20111;-58
2021/07/09 07:57:50;;;;;;;8.60;6.97;;;;;;;;;;5097331;28;20093;-58
2021/07/09 08:00:16;;;;;;;6.25;5.65;;;;;;;;;;5097861;28;20366;-58
2021/07/09 08:02:42;;;;;;;6.45;5.85;;;;;;;;;;5098435;28;20024;-60
2021/07/09 08:05:09;;;;;;;7.70;6.57;;;;;;;;;;5098438;28;20440;-59
2021/07/09 08:07:35;;;;;;;6.70;6.10;;;;;;;;;;5097634;28;20111;-59
2021/07/09 08:10:01;;;;;;;6.70;5.90;;;;;;;;;;5097664;28;20159;-60
2021/07/09 08:12:30;;;;;;;6.82;6.05;;;;;;;;;;5097465;28;20111;-59
2021/07/09 08:14:56;;;;;;;7.80;6.80;;;;;;;;;;5097870;28;20077;-59
2021/07/09 08:17:22;;;;;;;8.30;6.43;;;;;;;;;;5097500;28;20024;-59
2021/07/09 08:19:48;;;;;;;6.85;6.15;;;;;;;;;;5097500;28;20035;-59
2021/07/09 08:22:14;;;;;;;5.45;4.95;;;;;;;;;;5097340;28;20031;-59
2021/07/09 08:24:40;;;;;;;6.25;5.75;;;;;;;;;;5097244;28;20334;-59
2021/07/09 08:27:06;;;;;;;6.20;5.10;;;;;;;;;;5097280;28;20454;-59
2021/07/09 08:29:33;;;;;;;5.45;4.70;;;;;;;;;;5097576;28;20024;-59
2021/07/09 08:32:02;;;;;;;6.28;4.32;;;;;;;;;;5096332;28;20448;-60
2021/07/09 08:34:28;;;;;;;5.53;4.97;;;;;;;;;;5097598;28;20355;-59
2021/07/09 08:36:54;;;;;;;5.97;4.25;;;;;;;;;;5095952;28;20032;-59
2021/07/09 08:39:22;;;;;;;6.70;4.43;;;;;;;;;;5097028;28;20478;-59
2021/07/09 08:41:48;;;;;;;5.10;4.47;;;;;;;;;;5097156;28;20081;-59
2021/07/09 08:44:15;;;;;;;4.50;3.90;;;;;;;;;;5096992;28;20024;-59
2021/07/09 08:46:41;;;;;;;8.18;4.45;;;;;;;;;;5097003;28;20081;-59
2021/07/09 08:49:15;;;;;;;4.40;4.00;;;;;;;;;;5096838;28;20450;-59
2021/07/09 08:51:41;;;;;;;4.85;3.80;;;;;;;;;;5095832;28;20079;-59
2021/07/09 08:54:14;;;;;;;4.70;3.95;;;;;;;;;;5096725;28;20044;-59
2021/07/09 08:56:40;;;;;;;5.93;4.00;;;;;;;;;;5096901;28;20547;-59
2021/07/09 08:59:06;;;;;;;4.47;4.03;;;;;;;;;;5096782;28;20064;-59
2021/07/09 09:01:46;;;;;;;7.47;4.43;;;;;;;;;;5096695;28;20081;-59
2021/07/09 09:04:13;;;;;;;7.82;3.90;;;;;;;;;;5097373;28;20023;-59
2021/07/09 09:06:39;;;;;;;4.07;3.63;;;;;;;;;;5096395;28;20028;-59
2021/07/09 09:09:15;;;;;;;4.63;3.63;;;;;;;;;;5095269;28;20024;-59
2021/07/09 09:11:43;;;;;;;4.72;3.58;;;;;;;;;;5097216;28;20043;-60
2021/07/09 09:14:27;;;;;;;6.32;4.47;;;;;;;;;;5096400;28;20035;-59
2021/07/09 09:16:53;;;;;;;5.85;4.50;;;;;;;;;;5096408;28;20038;-59
2021/07/09 09:19:19;;;;;;;4.57;4.07;;;;;;;;;;5096671;28;20031;-59
2021/07/09 09:21:45;;;;;;;5.32;3.58;;;;;;;;;;5096352;28;20020;-59
2021/07/09 09:24:11;;;;;;;4.45;4.05;;;;;;;;;;5096279;28;20024;-59
2021/07/09 09:26:40;;;;;;;5.00;4.32;;;;;;;;;;5096435;28;20119;-60
2021/07/09 09:29:07;;;;;;;7.13;4.43;;;;;;;;;;5096158;28;20020;-60
2021/07/09 09:31:37;;;;;;;4.80;3.45;;;;;;;;;;5096483;28;20406;-60
2021/07/09 09:34:04;;;;;;;4.10;3.70;;;;;;;;;;5095686;28;20032;-60
2021/07/09 09:36:30;;;;;;;4.32;3.75;;;;;;;;;;5096338;28;20056;-59
2021/07/09 09:39:02;;;;;;;4.35;3.15;;;;;;;;;;5095931;28;20373;-59
2021/07/09 09:41:28;;;;;;;4.57;3.58;;;;;;;;;;5096130;28;20049;-59
2021/07/09 09:43:54;;;;;;;4.93;3.80;;;;;;;;;;5095835;28;20024;-60
2021/07/09 09:46:26;;;;;;;5.30;4.07;;;;;;;;;;5095964;28;20347;-59
2021/07/09 09:48:53;;;;;;;4.00;3.60;;;;;;;;;;5096237;28;20024;-59
2021/07/09 09:51:34;;;;;;;3.92;3.53;;;;;;;;;;5096395;28;20396;-59
2021/07/09 09:54:20;;;;;;;6.43;4.57;;;;;;;;;;5096115;28;20087;-59
2021/07/09 09:56:47;;;;;;;6.85;4.50;;;;;;;;;;5095515;28;20040;-59
2021/07/09 09:59:14;;;;;;;6.13;4.13;;;;;;;;;;5096076;28;20024;-59
2021/07/09 10:01:54;;;;;;;5.40;4.00;;;;;;;;;;5095609;28;20028;-59
2021/07/09 10:04:20;;;;;;;6.87;3.57;;;;;;;;;;5096001;28;20024;-59
2021/07/09 10:06:47;;;;;;;4.15;3.75;;;;;;;;;;5095437;28;20246;-59
2021/07/09 10:09:14;;;;;;;4.38;3.83;;;;;;;;;;5096139;28;20028;-59
2021/07/09 10:11:40;;;;;;;7.78;4.20;;;;;;;;;;5096276;28;20185;-59
2021/07/09 10:14:10;;;;;;;4.90;3.88;;;;;;;;;;5093963;28;20046;-59
2021/07/09 10:16:36;;;;;;;5.13;4.10;;;;;;;;;;5095123;28;20020;-59
2021/07/09 10:19:02;;;;;;;4.20;3.47;;;;;;;;;;5094623;28;20373;-59
2021/07/09 10:21:29;;;;;;;6.78;4.22;;;;;;;;;;5095492;28;20089;-59
2021/07/09 10:23:55;;;;;;;4.35;3.67;;;;;;;;;;5095000;28;20058;-61
2021/07/09 10:26:21;;;;;;;5.60;4.22;;;;;;;;;;5095036;28;20020;-60
2021/07/09 10:29:06;;;;;;;5.45;4.32;;;;;;;;;;5094964;28;20024;-60
2021/07/09 10:31:36;;;;;;;5.10;4.28;;;;;;;;;;5094984;28;20450;-59
2021/07/09 10:34:20;;;;;;;6.95;4.50;;;;;;;;;;5094067;28;20071;-60
2021/07/09 10:36:57;;;;;;;5.50;4.65;;;;;;;;;;5094873;28;20028;-60
2021/07/09 10:39:31;;;;;;;4.40;3.83;;;;;;;;;;5095627;28;20031;-59
2021/07/09 10:42:12;;;;;;;4.82;4.28;;;;;;;;;;5094507;28;20446;-60
2021/07/09 10:44:38;;;;;;;6.30;3.78;;;;;;;;;;5095046;28;20083;-59
2021/07/09 10:47:17;;;;;;;5.60;4.15;;;;;;;;;;5094669;28;20028;-60
2021/07/09 10:49:53;;;;;;;5.03;4.53;;;;;;;;;;5094210;28;20507;-60
2021/07/09 10:52:39;;;;;;;6.47;4.32;;;;;;;;;;5094720;28;20034;-60
2021/07/09 10:55:23;;;;;;;5.45;4.85;;;;;;;;;;5093689;28;20043;-59
2021/07/09 10:58:17;;;;;;;5.80;5.22;;;;;;;;;;5094815;28;20493;-59
2021/07/09 11:00:45;;;;;;;10.27;6.85;;;;;;;;;;5093488;28;20024;-59
2021/07/09 11:03:12;;;;;;;9.15;7.35;;;;;;;;;;5094480;28;20028;-60
2021/07/09 11:05:44;;;;;;;10.85;6.82;;;;;;;;;;5093492;28;20032;-59
2021/07/09 11:08:52;;;;;;;8.85;6.13;;;;;;;;;;5094582;28;20109;-60
2021/07/09 11:11:29;;;;;;;9.88;6.47;;;;;;;;;;5091719;28;20406;-59
2021/07/09 11:13:59;;;;;;;6.95;6.25;;;;;;;;;;5092483;28;20036;-59
2021/07/09 11:16:25;;;;;;;8.57;6.60;;;;;;;;;;5093082;28;20032;-59
2021/07/09 11:18:57;;;;;;;6.90;6.18;;;;;;;;;;5094334;28;20016;-59
2021/07/09 11:21:26;;;;;;;7.47;5.95;;;;;;;;;;5094599;28;20024;-60
2021/07/09 11:23:53;;;;;;;6.22;5.63;;;;;;;;;;5094370;28;20028;-60
2021/07/09 11:26:19;;;;;;;6.80;5.40;;;;;;;;;;5094644;28;20495;-60
2021/07/09 11:28:45;;;;;;;6.63;5.40;;;;;;;;;;5093943;28;20027;-60
2021/07/09 11:31:11;;;;;;;6.80;6.10;;;;;;;;;;5093667;28;20024;-60
2021/07/09 11:33:38;;;;;;;10.10;6.00;;;;;;;;;;5094208;28;20036;-60
2021/07/09 11:36:17;;;;;;;7.82;5.80;;;;;;;;;;5094130;28;20453;-60
2021/07/09 11:39:12;;;;;;;7.55;5.68;;;;;;;;;;5093850;28;20024;-60
2021/07/09 11:41:51;;;;;;;6.22;5.28;;;;;;;;;;5093509;28;20452;-60
2021/07/09 11:44:18;;;;;;;7.47;6.68;;;;;;;;;;5093891;28;20024;-60
2021/07/09 11:46:50;;;;;;;7.57;6.65;;;;;;;;;;5093811;28;20028;-60
2021/07/09 11:49:18;;;;;;;7.25;6.30;;;;;;;;;;5093844;28;20020;-60
2021/07/09 11:51:47;;;;;;;7.10;6.40;;;;;;;;;;5092136;28;20027;-60
2021/07/09 11:54:13;;;;;;;6.78;6.07;;;;;;;;;;5093788;28;20040;-60
2021/07/09 11:56:40;;;;;;;7.00;6.38;;;;;;;;;;5093986;28;20210;-60
2021/07/09 11:59:13;;;;;;;7.95;7.15;;;;;;;;;;5093836;28;20103;-60
2021/07/09 12:01:39;;;;;;;6.05;5.47;;;;;;;;;;5094027;28;20035;-60
2021/07/09 12:04:05;;;;;;;7.53;6.68;;;;;;;;;;5094282;28;20032;-60
2021/07/09 12:06:31;;;;;;;10.65;5.70;;;;;;;;;;5093556;28;20021;-60
2021/07/09 12:08:58;;;;;;;8.43;5.60;;;;;;;;;;5094157;28;20354;-60
2021/07/09 12:11:24;;;;;;;6.93;5.70;;;;;;;;;;5093766;28;20044;-60
2021/07/09 12:14:05;;;;;;;6.80;6.15;;;;;;;;;;5093207;28;20035;-60
2021/07/09 12:16:32;;;;;;;7.47;6.78;;;;;;;;;;5093783;28;20020;-60
2021/07/09 12:18:58;;;;;;;7.78;7.00;;;;;;;;;;5093508;28;20020;-60
2021/07/09 12:21:27;;;;;;;10.95;6.63;;;;;;;;;;5093512;28;20051;-60
2021/07/09 12:24:03;;;;;;;8.25;7.45;;;;;;;;;;5093648;28;20057;-60
2021/07/09 12:26:30;;;;;;;9.90;7.03;;;;;;;;;;5093621;28;20078;-59
2021/07/09 12:28:56;;;;;;;8.70;7.40;;;;;;;;;;5092966;28;20419;-60
2021/07/09 12:31:22;;;;;;;8.27;7.25;;;;;;;;;;5093949;28;20457;-59
2021/07/09 12:33:54;;;;;;;8.43;7.20;;;;;;;;;;5093490;28;20032;-57
2021/07/09 12:36:25;;;;;;;9.65;7.50;;;;;;;;;;5093408;28;20103;-58
2021/07/09 12:38:59;;;;;;;9.20;7.57;;;;;;;;;;5093278;28;20028;-58
2021/07/09 12:41:32;;;;;;;7.38;6.68;;;;;;;;;;5093368;28;20020;-58
2021/07/09 12:44:04;;;;;;;8.23;7.38;;;;;;;;;;5096344;28;20463;-58
2021/07/09 12:46:31;;;;;;;7.90;6.40;;;;;;;;;;5097354;28;20149;-58
2021/07/09 12:48:59;;;;;;;6.78;6.07;;;;;;;;;;5097146;28;20048;-58
2021/07/09 12:51:25;;;;;;;7.97;5.78;;;;;;;;;;5097037;28;20012;-58
2021/07/09 12:53:56;;;;;;;6.82;5.90;;;;;;;;;;5096778;28;20040;-58
2021/07/09 12:56:23;;;;;;;5.35;4.85;;;;;;;;;;5096874;28;20051;-58
2021/07/09 12:58:57;;;;;;;6.82;5.57;;;;;;;;;;5097043;28;20028;-58
2021/07/09 13:01:23;;;;;;;6.10;5.45;;;;;;;;;;5095568;28;20024;-58
2021/07/09 13:03:49;;;;;;;10.98;5.38;;;;;;;;;;5096702;28;20116;-58
2021/07/09 13:06:17;;;;;;;5.13;4.63;;;;;;;;;;5096617;28;20048;-58
2021/07/09 13:08:44;;;;;;;7.95;5.03;;;;;;;;;;5096615;28;20039;-58
2021/07/09 13:11:12;;;;;;;3.90;3.17;;;;;;;;;;5096613;28;20393;-58
2021/07/09 13:13:40;;;;;;;4.47;3.17;;;;;;;;;;5096465;28;20032;-58
2021/07/09 13:16:08;;;;;;;3.55;2.95;;;;;;;;;;5094967;28;20020;-58
2021/07/09 13:18:34;;;;;;;5.57;3.88;;;;;;;;;;5095169;28;20416;-58
2021/07/09 13:21:02;;;;;;;3.67;3.38;;;;;;;;;;5097169;28;20021;-58
2021/07/09 13:23:28;;;;;;;4.30;3.78;;;;;;;;;;5096109;28;20530;-58
2021/07/09 13:26:01;;;;;;;5.75;3.60;;;;;;;;;;5095485;28;20028;-58
2021/07/09 13:28:36;;;;;;;7.72;3.90;;;;;;;;;;5095006;28;20016;-58
2021/07/09 13:31:02;;;;;;;4.30;3.05;;;;;;;;;;5096283;28;20028;-58
2021/07/09 13:33:28;;;;;;;3.53;2.67;;;;;;;;;;5096694;28;20037;-60
2021/07/09 13:35:55;;;;;;;5.03;3.55;;;;;;;;;;5096128;28;20575;-58
2021/07/09 13:38:21;;;;;;;3.90;3.53;;;;;;;;;;5096592;28;20055;-58
2021/07/09 13:40:47;;;;;;;4.10;3.70;;;;;;;;;;5095920;28;20035;-58
2021/07/09 13:43:13;;;;;;;4.50;3.60;;;;;;;;;;5096077;28;20024;-58
2021/07/09 13:45:39;;;;;;;3.15;2.85;;;;;;;;;;5095893;28;20020;-58
2021/07/09 13:48:05;;;;;;;3.90;3.28;;;;;;;;;;5095010;28;20070;-58
2021/07/09 13:50:31;;;;;;;3.40;2.90;;;;;;;;;;5095438;28;20103;-58
2021/07/09 13:52:58;;;;;;;5.43;3.20;;;;;;;;;;5094801;28;20028;-58
2021/07/09 13:55:24;;;;;;;4.15;2.83;;;;;;;;;;5095006;28;20024;-58
2021/07/09 13:57:50;;;;;;;3.85;2.97;;;;;;;;;;5096154;28;20115;-59
2021/07/09 14:00:16;;;;;;;4.53;3.35;;;;;;;;;;5095330;28;20052;-58
2021/07/09 14:02:43;;;;;;;5.50;3.70;;;;;;;;;;5096163;28;20077;-58
2021/07/09 14:05:09;;;;;;;6.00;3.42;;;;;;;;;;5094731;28;20397;-58
2021/07/09 14:07:35;;;;;;;3.95;3.47;;;;;;;;;;5095708;28;20028;-58
2021/07/09 14:10:02;;;;;;;4.05;2.70;;;;;;;;;;5095414;28;20044;-58
2021/07/09 14:12:29;;;;;;;3.00;2.50;;;;;;;;;;5095518;28;20027;-58
2021/07/09 14:14:55;;;;;;;3.40;2.53;;;;;;;;;;5095345;28;20024;-58
2021/07/09 14:17:21;;;;;;;5.88;3.15;;;;;;;;;;5095273;28;20027;-58
2021/07/09 14:19:47;;;;;;;3.00;2.40;;;;;;;;;;5094569;28;20020;-59
2021/07/09 14:22:13;;;;;;;2.70;2.38;;;;;;;;;;5095585;28;20020;-59
2021/07/09 14:24:40;;;;;;;2.88;2.25;;;;;;;;;;5095202;28;20032;-59
2021/07/09 14:27:06;;;;;;;4.70;2.70;;;;;;;;;;5095158;28;20047;-59
2021/07/09 14:29:32;;;;;;;3.22;2.70;;;;;;;;;;5095451;28;20126;-59
2021/07/09 14:31:58;;;;;;;8.68;2.97;;;;;;;;;;5093814;28;20063;-59
2021/07/09 14:34:27;;;;;;;5.78;3.35;;;;;;;;;;5095194;28;20060;-59
2021/07/09 14:36:55;;;;;;;4.07;2.63;;;;;;;;;;5076737;28;20111;-58
2021/07/09 14:39:21;;;;;;;6.40;2.80;;;;;;;;;;5094808;28;20107;-58
2021/07/09 14:41:47;;;;;;;3.67;2.97;;;;;;;;;;5095439;28;20346;-58
2021/07/09 14:44:13;;;;;;;3.30;2.80;;;;;;;;;;5094832;28;20093;-58
2021/07/09 14:46:39;;;;;;;3.58;2.97;;;;;;;;;;5094749;28;20465;-58